createdAt,value
2022-09-26T00:14:31.397Z,14.00
2022-09-26T00:29:36.916Z,14.06
2022-09-26T00:44:47.870Z,13.88
2022-09-26T00:59:59.542Z,13.81
2022-09-26T01:15:07.629Z,13.75
2022-09-26T01:30:16.858Z,13.75
2022-09-26T01:45:24.925Z,13.69
2022-09-26T02:00:32.297Z,13.63
2022-09-26T02:15:40.674Z,13.63
2022-09-26T02:30:49.452Z,13.63
2022-09-26T02:46:03.178Z,13.63
2022-09-26T03:01:16.194Z,13.44
2022-09-26T03:16:24.067Z,13.19
2022-09-26T03:31:29.800Z,13.31
2022-09-26T03:46:39.801Z,13.38
2022-09-26T04:01:45.705Z,13.31
2022-09-26T04:16:51.375Z,13.31
2022-09-26T04:31:57.386Z,13.31
2022-09-26T04:47:03.229Z,13.19
2022-09-26T05:02:08.880Z,13.31
2022-09-26T05:17:15.719Z,13.25
2022-09-26T05:32:21.324Z,13.25
2022-09-26T05:47:28.651Z,13.31
2022-09-26T06:02:35.176Z,13.38
2022-09-26T06:17:40.835Z,13.31
2022-09-26T06:32:46.640Z,13.44
2022-09-26T06:47:52.377Z,13.56
2022-09-26T07:02:58.276Z,13.63
2022-09-26T07:18:06.651Z,14.00
2022-09-26T07:33:12.952Z,14.13
2022-09-26T07:48:36.026Z,14.25
2022-09-26T08:03:42.404Z,14.31
2022-09-26T08:18:48.201Z,14.56
2022-09-26T08:33:54.280Z,14.63
2022-09-26T08:49:19.436Z,14.69
2022-09-26T09:04:27.812Z,15.00
2022-09-26T09:19:39.759Z,14.81
2022-09-26T09:34:51.539Z,15.75
2022-09-26T09:50:00.657Z,16.06
2022-09-26T10:05:24.606Z,15.56
2022-09-26T10:20:53.136Z,15.56
2022-09-26T10:36:10.237Z,15.56
2022-09-26T10:51:19.589Z,15.56
2022-09-26T11:06:28.389Z,16.13
2022-09-26T11:21:41.589Z,16.19
2022-09-26T11:37:04.406Z,16.56
2022-09-26T11:52:24.994Z,16.69
2022-09-26T12:07:39.452Z,16.56
2022-09-26T12:22:52.331Z,16.75
2022-09-26T12:38:32.834Z,16.50
2022-09-26T12:53:54.701Z,16.56
2022-09-26T13:09:11.270Z,16.25
2022-09-26T13:24:22.927Z,16.31
2022-09-26T13:39:34.713Z,16.25
2022-09-26T13:54:57.526Z,16.00
2022-09-26T14:10:22.308Z,16.00
2022-09-26T14:26:06.081Z,16.00
2022-09-26T14:41:19.085Z,15.88
2022-09-26T14:56:47.700Z,15.88
2022-09-26T15:11:58.927Z,15.69
2022-09-26T15:27:12.650Z,15.44
2022-09-26T15:42:44.627Z,15.13
2022-09-26T15:57:53.066Z,15.06
2022-09-26T16:13:00.801Z,15.00
2022-09-26T16:28:45.029Z,14.75
2022-09-26T16:43:59.438Z,14.56
2022-09-26T16:59:07.019Z,14.56
2022-09-26T17:14:17.753Z,14.50
2022-09-26T17:29:26.888Z,14.38
2022-09-26T17:44:33.116Z,14.31
2022-09-26T17:59:42.414Z,14.19
2022-09-26T18:14:48.131Z,14.13
2022-09-26T18:29:55.055Z,14.13
2022-09-26T18:45:04.598Z,14.13
2022-09-26T19:00:13.025Z,13.75
2022-09-26T19:15:19.771Z,13.75
2022-09-26T19:30:25.305Z,13.75
2022-09-26T19:45:32.236Z,13.63
2022-09-26T20:00:41.712Z,13.63
2022-09-26T20:15:48.674Z,13.69
2022-09-26T20:30:55.666Z,13.63
2022-09-26T20:46:03.393Z,13.44
2022-09-26T21:01:14.778Z,13.31
2022-09-26T21:16:22.145Z,13.13
2022-09-26T21:31:29.677Z,13.00
2022-09-26T21:46:35.437Z,13.06
2022-09-26T22:01:41.421Z,13.00
2022-09-26T22:16:47.197Z,12.88
2022-09-26T22:31:52.851Z,12.63
2022-09-26T22:46:58.414Z,12.69
2022-09-26T23:02:04.880Z,12.75
2022-09-26T23:17:10.687Z,12.69
2022-09-26T23:32:17.080Z,12.88
2022-09-26T23:47:22.819Z,12.88
